Chadron Municipal Airport
KCDR : rendu visible

Aérodrome :











RETROUVEZ-NOUS SUR...

 
LOGIN :

S'inscrire | Disclaimer

   EN    FR    IT 

 









Légende :    VFR   VFR Marginal   IFR   IFR Intensif   IFR Très Intensif
Visi : 
Plafond : 
>= 8 km
>= 3000ft
5 à 8 km
1000 à 3000 ft
1500m à 5 km
500 à 1000 ft
800 à 1500m
200 à 500 ft
< 800m
< 200 ft
Symboles :   Orages  Brouillard  Fortes neiges  Fortes précipitations  Vent > 20 kt






- Altitude de l'aérodrome : 3297 ft


KCDR - Chadron Municipal

DERNIER METAR :
  • 190553Z AUTO 25007KT 10SM BKN110 M09/M12 A3038 RMK AO2 SLP341 T10891122 11050 21106 51008

METARs EXPIRÉS :
  • 190453Z AUTO 23007KT 10SM CLR M09/M12 A3037 RMK AO2 SLP344 T10941122
  • 190353Z AUTO 18003KT 10SM CLR M08/M12 A3037 RMK AO2 SLP344 T10831117

TAF KCDR
Valide du 19 à 06h jusqu'au 20 à 06h UTC


190520Z 1906/2006 VRB04KT P6SM SCT200



MET'MAP, la Météo Aéronautique d'un coup d'oeil ! - Copyright ORBIFLY Décembre 2007 - Disclaimer

ORBIFLY MET'MAP TEAM :

Programmation & Développement : Alexandra Zaïnal
Sur une idée originale de : Baudouin d'Aumeries
Assistance à la programmation : Marc-Olivier Méhu
Soutien technique & logistique : Manuel Goepfert

Contact : metmap@orbifly.com




SOURCES & CREDITS :

   NOAA       Earth
Advisory